Latest Weather Observations for Kingaroy

IDQ60801

Issued at 12:32 pm EST Thursday 23 February 2017 (issued every 30 minutes, with the page automatically refreshed every 10 minutes)

About weather observations | Map of weather stations | Latest weather observations for QLD | Other Formats
Station Details ID: 040922 Name: KINGAROY AIRPORT Lat: -26.57 Lon: 151.84 Height: 433.67 m
Data from the previous 72 hours. | See also: Recent months at Kingaroy
Date/Time
EST
Temp
°C
App
Temp
°C
Dew
Point
°C
Rel
Hum
%
Delta-T
°C
Wind Press
QNH
hPa
Press
MSL
hPa
Rain since
9am
mm
Dir  Spd
km/h
Gust
km/h
Spd
kts
Gust
kts
23/12:00pm 27.6 26.1 14.3 44 8.1 SE 15 35 8 19 1019.6 1017.2 0.0
23/11:30am 27.0 26.0 14.7 47 7.5 ESE 13 20 7 11 1019.8 1017.4 0.0
23/11:00am 25.3 23.9 13.5 48 7.0 ESE 13 20 7 11 1020.3 1017.9 0.0
23/10:30am 25.7 24.3 14.5 50 6.8 E 15 28 8 15 1020.9 1018.6 0.0
23/10:00am 24.4 22.5 14.2 53 6.1 ESE 17 28 9 15 1021.1 1018.8 0.0
23/09:30am 23.0 20.5 13.5 55 5.6 ESE 19 26 10 14 1021.3 1018.9 0.0
23/09:00am 22.6 20.6 15.0 62 4.6 SE 19 30 10 16 1021.1 1018.8 0.0
23/08:30am 21.6 19.2 14.3 63 4.3 ESE 20 32 11 17 1021.0 1018.7 0.0
23/08:00am 21.4 20.3 15.3 68 3.7 SE 15 22 8 12 1020.8 1018.5 0.0
23/07:30am 20.1 19.3 15.1 73 3.0 SE 13 22 7 12 1020.5 1018.1 0.0
23/07:00am 18.6 18.8 15.7 83 1.7 S 9 11 5 6 1020.3 1017.9 0.0
23/06:30am 16.8 17.4 15.2 90 0.9 SE 6 13 3 7 1020.0 1017.6 0.0
23/06:00am 15.3 15.4 13.8 91 0.9 SE 6 7 3 4 1019.7 1017.3 0.0
23/05:30am 15.5 15.4 13.9 90 0.9 SE 7 11 4 6 1019.5 1017.1 0.0
23/05:00am 15.8 15.9 14.0 89 1.0 SE 6 9 3 5 1019.3 1016.9 0.0
23/04:30am 16.3 15.6 14.3 88 1.2 SSE 11 13 6 7 1019.2 1016.8 0.0
23/04:00am 16.8 15.7 14.4 86 1.4 SSE 13 15 7 8 1019.2 1016.8 0.0
23/03:30am 17.1 16.5 14.7 86 1.4 SE 11 13 6 7 1019.4 1017.0 0.0
23/03:00am 17.5 17.3 14.8 84 1.6 SE 9 11 5 6 1019.3 1016.9 0.0
23/02:30am 17.9 17.9 15.2 84 1.6 SE 9 13 5 7 1019.3 1016.9 0.0
23/02:00am 16.8 16.6 14.6 87 1.3 ESE 9 13 5 7 1019.6 1017.2 0.0
23/01:30am 17.5 17.3 14.8 84 1.6 ESE 9 13 5 7 1019.9 1017.5 0.0
23/01:00am 17.8 17.9 14.5 81 1.9 SSE 7 9 4 5 1020.2 1017.8 0.0
23/12:30am 18.6 18.9 14.9 79 2.2 SE 7 11 4 6 1020.4 1018.0 0.0
23/12:00am 19.3 18.5 15.2 77 2.4 ESE 13 20 7 11 1020.5 1018.1 0.0
 
Date/Time
EST
Temp
°C
App
Temp
°C
Dew
Point
°C
Rel
Hum
%
Delta-T
°C
Wind Press
QNH
hPa
Press
MSL
hPa
Rain since
9am
mm
Dir  Spd
km/h
Gust
km/h
Spd
kts
Gust
kts
22/11:30pm 19.8 19.6 15.7 77 2.5 SE 11 17 6 9 1020.9 1018.6 0.0
22/11:00pm 20.3 19.7 15.7 75 2.8 SE 13 20 7 11 1020.8 1018.5 0.0
22/10:30pm 20.2 20.6 15.4 74 2.9 ESE 7 11 4 6 1020.8 1018.5 0.0
22/10:00pm 20.1 20.1 15.1 73 3.0 ESE 9 11 5 6 1020.8 1018.5 0.0
22/09:30pm 20.6 19.3 14.9 70 3.4 E 15 20 8 11 1020.7 1018.3 0.0
22/09:00pm 21.0 19.7 14.9 68 3.7 E 15 20 8 11 1020.8 1018.5 0.0
22/08:30pm 21.4 20.0 14.6 65 4.1 E 15 19 8 10 1020.4 1018.0 0.0
22/08:00pm 21.9 19.7 14.3 62 4.5 E 19 32 10 17 1019.8 1017.4 0.0
22/07:30pm 22.5 20.9 13.8 58 5.2 E 15 24 8 13 1019.6 1017.2 0.0
22/07:00pm 23.1 20.8 13.0 53 5.9 E 17 24 9 13 1019.1 1016.7 0.0
22/06:30pm 23.7 22.0 12.4 49 6.6 ESE 13 20 7 11 1018.9 1016.5 0.0
22/06:00pm 24.5 22.4 12.5 47 7.0 ESE 15 20 8 11 1018.5 1016.1 0.0
22/05:30pm 25.0 22.8 13.2 48 7.0 ESE 17 28 9 15 1018.2 1015.8 0.0
22/05:00pm 25.7 23.1 13.9 48 7.1 ESE 20 30 11 16 1017.9 1015.5 0.0
22/04:30pm 26.5 24.4 14.6 48 7.3 SE 19 26 10 14 1017.7 1015.3 0.0
22/04:00pm 27.9 26.4 15.2 46 7.9 ESE 17 22 9 12 1017.4 1015.0 0.0
22/03:30pm 27.3 26.1 15.0 47 7.6 ESE 15 22 8 12 1017.6 1015.2 0.0
22/03:00pm 27.0 24.7 14.1 45 7.8 ESE 19 28 10 15 1017.7 1015.3 0.0
22/02:30pm 26.8 24.8 13.9 45 7.8 ESE 17 22 9 12 1017.9 1015.5 0.0
22/02:00pm 27.8 25.9 15.1 46 7.8 ESE 19 28 10 15 1018.3 1015.9 0.0
22/01:30pm 27.5 25.7 14.5 45 8.0 ESE 17 30 9 16 1018.6 1016.2 0.0
22/01:00pm 26.6 24.9 14.7 48 7.3 SE 17 24 9 13 1019.0 1016.6 0.0
22/12:30pm 26.8 25.5 15.8 51 6.9 SE 17 24 9 13 1019.3 1016.9 0.0
22/12:00pm 25.9 24.9 15.6 53 6.4 ESE 15 24 8 13 1019.8 1017.4 0.0
22/11:30am 25.4 24.1 15.7 55 6.0 ESE 17 26 9 14 1020.2 1017.8 0.0
22/11:00am 24.5 22.7 15.4 57 5.6 ESE 19 30 10 16 1020.5 1018.1 0.0
22/10:30am 25.3 23.8 16.2 57 5.7 ESE 19 28 10 15 1020.5 1018.1 0.0
22/10:00am 24.9 22.4 16.1 58 5.5 ESE 24 33 13 18 1020.9 1018.6 0.0
22/09:30am 24.8 22.2 16.0 58 5.5 ESE 24 37 13 20 1021.1 1018.8 0.0
22/09:00am 24.0 22.9 17.3 66 4.2 ESE 19 28 10 15 1020.9 1018.6 -
22/08:30am 23.1 21.7 16.6 67 4.0 ESE 19 30 10 16 1020.8 1018.5 -
22/08:00am 23.2 23.8 18.5 75 3.0 ESE 13 22 7 12 1020.6 1018.2 -
22/07:30am 20.8 20.8 17.2 80 2.2 ESE 13 19 7 10 1020.7 1018.3 -
22/07:00am 20.2 20.6 17.2 83 1.9 SSE 11 15 6 8 1020.7 1018.3 -
22/06:30am 19.6 20.7 17.0 85 1.6 SE 7 11 4 6 1020.3 1017.9 -
22/06:00am 19.2 19.9 17.0 87 1.4 SSE 9 13 5 7 1020.0 1017.6 -
22/05:30am 18.7 19.3 16.7 88 1.2 SSE 9 13 5 7 1019.7 1017.3 -
22/05:00am 18.9 18.8 16.9 88 1.2 S 13 15 7 8 1019.2 1016.8 -
22/04:30am 19.3 20.4 16.5 84 1.7 SE 6 9 3 5 1019.0 1016.6 -
22/04:00am 19.6 20.1 16.6 83 1.8 ESE 9 11 5 6 1018.9 1016.5 -
22/03:30am 20.0 20.5 16.6 81 2.1 ESE 9 15 5 8 1018.8 1016.4 -
22/03:00am 20.1 21.1 16.9 82 2.0 SE 7 11 4 6 1018.9 1016.5 0.0
22/02:30am 20.0 21.0 16.4 80 2.2 SE 6 11 3 6 1018.9 1016.5 -
22/02:00am 20.2 20.6 16.4 79 2.3 SE 9 13 5 7 1018.6 1016.2 -
22/01:30am 20.3 21.0 16.1 77 2.6 SE 7 9 4 5 1019.3 1016.9 -
22/01:00am 20.4 21.0 15.8 75 2.8 SE 7 11 4 6 1019.4 1017.0 -
22/12:30am 20.7 21.3 15.9 74 2.9 ESE 7 11 4 6 1019.4 1017.0 -
22/12:00am 20.8 21.0 15.8 73 3.0 ESE 9 13 5 7 1019.3 1016.9 -
 
Date/Time
EST
Temp
°C
App
Temp
°C
Dew
Point
°C
Rel
Hum
%
Delta-T
°C
Wind Press
QNH
hPa
Press
MSL
hPa
Rain since
9am
mm
Dir  Spd
km/h
Gust
km/h
Spd
kts
Gust
kts
21/11:30pm 21.0 21.1 15.5 71 3.3 ESE 9 15 5 8 1019.4 1017.0 -
21/11:00pm 21.2 20.5 15.5 70 3.5 ESE 13 19 7 10 1019.4 1017.0 -
21/10:30pm 22.0 20.6 15.6 67 3.9 ESE 17 30 9 16 1019.4 1017.0 -
21/10:00pm 22.5 21.8 17.4 73 3.2 ESE 17 28 9 15 1019.2 1016.8 -
21/09:30pm 22.8 22.5 17.3 71 3.5 ESE 15 24 8 13 1019.2 1016.8 -
21/09:00pm 22.9 22.6 17.4 71 3.5 E 15 26 8 14 1019.0 1016.6 -
21/08:30pm 23.3 22.5 17.1 68 3.9 E 17 26 9 14 1018.9 1016.5 -
21/08:00pm 23.8 22.4 16.6 64 4.5 E 19 30 10 16 1018.4 1016.0 -
21/07:30pm 24.7 23.7 16.7 61 5.0 ESE 17 28 9 15 1018.2 1015.8 -
21/05:00pm 30.8 29.1 11.2 30 11.5 ESE 11 22 6 12 1015.7 1013.3 0.0
21/04:30pm 30.8 27.8 10.7 29 11.7 ESE 17 24 9 13 1015.5 1013.1 0.0
21/04:00pm 31.7 29.9 12.0 30 11.8 SE 13 30 7 16 1015.5 1013.1 0.0
21/03:30pm 31.6 29.7 11.9 30 11.8 SSE 13 22 7 12 1015.5 1013.1 0.0
21/03:00pm 31.7 30.1 11.5 29 12.0 ESE 11 20 6 11 1015.7 1013.3 0.0
21/02:30pm 31.9 30.3 12.7 31 11.6 S 13 28 7 15 1015.8 1013.4 0.0
21/02:00pm 31.4 30.3 13.2 33 11.1 SSE 11 20 6 11 1016.1 1013.7 0.0
21/01:30pm 31.0 30.3 14.2 36 10.4 SSW 11 26 6 14 1016.4 1013.9 0.0
21/01:00pm 30.6 29.7 13.8 35 10.3 S 11 24 6 13 1016.8 1014.4 0.0
21/12:30pm 29.5 28.8 13.3 37 9.8 N 9 19 5 10 1017.2 1014.8 0.0
21/12:00pm 30.3 30.8 15.6 41 9.2 W 7 13 4 7 1017.4 1015.0 0.0
21/11:30am 29.0 29.1 15.5 44 8.4 ENE 9 13 5 7 1017.7 1015.3 0.0
21/11:00am 28.4 28.3 17.0 50 7.3 SSE 13 20 7 11 1018.1 1015.7 0.0
21/10:30am 28.3 28.8 18.4 55 6.4 ESE 13 17 7 9 1018.6 1016.2 0.0
21/10:00am 27.2 27.2 17.1 54 6.4 E 13 24 7 13 1018.9 1016.5 0.0
21/09:30am 25.8 27.0 19.0 66 4.4 ESE 11 17 6 9 1019.0 1016.6 0.0
21/09:20am 25.0 26.3 18.4 66 4.2 SE 9 17 5 9 1019.1 1016.7 0.0
21/09:00am 24.7 25.4 18.9 70 3.8 ESE 13 19 7 10 1019.2 1016.8 0.0
21/08:30am 22.4 22.9 18.4 78 2.6 ESE 13 20 7 11 1019.1 1016.7 0.0
21/08:00am 22.0 22.9 19.2 84 1.8 ESE 13 17 7 9 1019.0 1016.6 0.0
21/07:30am 21.2 22.4 19.1 88 1.3 ESE 11 15 6 8 1018.4 1016.0 0.0
21/07:00am 20.9 22.5 19.2 90 1.1 SE 9 13 5 7 1018.2 1015.8 0.0
21/06:53am 20.8 23.1 19.8 94 0.6 ESE 7 11 4 6 1018.1 1015.7 0.0
21/06:30am 18.5 21.1 17.5 94 0.6 CALM 0 2 0 1 1017.9 1015.5 0.0
21/06:25am 18.2 20.2 17.0 93 0.7 N 2 6 1 3 1017.9 1015.5 0.0
21/06:00am 17.8 19.1 17.0 95 0.5 N 6 7 3 4 1017.6 1015.2 0.0
21/05:54am 17.7 18.8 16.7 94 0.6 N 6 7 3 4 1017.5 1015.1 0.0
21/05:48am 17.5 19.3 16.5 94 0.6 WNW 2 7 1 4 1017.4 1015.0 0.0
21/05:30am 18.0 19.6 17.0 94 0.6 SSW 4 7 2 4 1017.2 1014.8 0.0
21/05:00am 17.9 20.3 16.9 94 0.6 CALM 0 0 0 0 1016.8 1014.4 0.0
21/04:30am 17.8 20.1 16.8 94 0.6 CALM 0 0 0 0 1016.5 1014.0 0.0
21/04:04am 17.2 19.2 16.1 93 0.7 CALM 0 0 0 0 1016.0 1013.6 0.0
21/04:00am 17.1 19.1 16.0 93 0.7 CALM 0 0 0 0 1016.0 1013.6 0.0
21/03:30am 17.4 18.7 16.1 92 0.8 SSE 4 7 2 4 1015.8 1013.4 0.0
21/03:00am 17.7 18.5 16.4 92 0.8 SSW 7 9 4 5 1015.6 1013.2 0.0
21/02:30am 17.8 18.5 16.1 90 1.0 S 7 9 4 5 1015.6 1013.2 0.0
21/02:00am 18.2 19.8 16.0 87 1.3 SE 2 6 1 3 1015.4 1013.0 0.0
21/01:30am 18.6 19.5 16.0 85 1.6 SSE 6 9 3 5 1015.7 1013.3 0.0
21/01:00am 19.3 21.4 16.2 82 1.9 CALM 0 9 0 5 1015.9 1013.5 0.0
21/12:30am 20.0 22.4 17.0 83 1.9 CALM 0 0 0 0 1016.1 1013.7 0.0
21/12:00am 20.4 21.3 16.6 79 2.3 E 7 11 4 6 1016.1 1013.7 0.0
 
Date/Time
EST
Temp
°C
App
Temp
°C
Dew
Point
°C
Rel
Hum
%
Delta-T
°C
Wind Press
QNH
hPa
Press
MSL
hPa
Rain since
9am
mm
Dir  Spd
km/h
Gust
km/h
Spd
kts
Gust
kts
20/11:30pm 20.3 20.3 16.3 78 2.5 E 11 13 6 7 1016.2 1013.8 0.0
20/11:00pm 21.2 20.4 15.1 68 3.7 E 13 15 7 8 1016.2 1013.8 0.0
20/10:30pm 21.6 21.0 14.7 65 4.1 ESE 11 15 6 8 1016.1 1013.7 0.0
20/10:00pm 20.9 20.2 13.1 61 4.5 ESE 9 13 5 7 1016.0 1013.6 0.0
20/09:30pm 21.5 20.6 11.5 53 5.7 E 7 11 4 6 1016.0 1013.6 0.0
20/09:00pm 21.0 21.0 13.7 63 4.3 SSE 6 7 3 4 1015.6 1013.2 0.0
20/08:30pm 21.1 21.8 12.3 57 5.1 CALM 0 0 0 0 1015.1 1012.7 0.0
20/08:00pm 21.8 21.3 12.6 56 5.3 SSE 7 9 4 5 1014.8 1012.4 0.0
20/07:30pm 21.8 20.5 12.6 56 5.3 S 11 11 6 6 1014.3 1011.8 0.0
20/07:00pm 22.8 21.4 12.1 51 6.2 SSW 11 15 6 8 1013.4 1011.0 0.0
20/06:30pm 25.3 23.8 10.4 39 8.5 SW 9 11 5 6 1013.0 1010.6 0.0
20/06:00pm 26.9 25.2 9.7 34 9.7 SW 9 13 5 7 1012.7 1010.3 0.0
20/05:30pm 28.3 25.9 8.6 29 11.0 WSW 11 15 6 8 1012.2 1009.7 0.0
20/05:00pm 29.3 26.6 7.2 25 12.1 W 11 17 6 9 1011.8 1009.3 0.0
20/04:30pm 29.6 27.5 8.1 26 12.0 S 9 20 5 11 1011.6 1009.1 0.0
20/04:00pm 30.0 26.7 9.5 28 11.7 SSW 17 24 9 13 1011.5 1009.0 0.0
20/03:30pm 29.8 27.6 7.7 25 12.3 SSE 9 15 5 8 1011.2 1008.8 0.0
20/03:00pm 29.5 27.0 8.0 26 12.0 SSW 11 19 6 10 1011.3 1008.9 0.0
20/02:30pm 29.0 26.7 7.6 26 11.8 S 9 19 5 10 1011.3 1008.9 0.0
20/02:00pm 29.2 26.6 9.3 29 11.3 SSE 13 24 7 13 1011.8 1009.3 0.0
20/01:30pm 28.9 26.1 10.1 31 10.8 S 15 22 8 12 1012.1 1009.6 0.0
20/01:00pm 28.4 25.8 9.2 30 10.8 SSW 13 26 7 14 1012.4 1009.9 0.0

Other Formats:

Comma delimited format used in spreadsheet applications
http://www.bom.gov.au/fwo/IDQ60801/IDQ60801.94549.axf

JavaScript Object Notation format (JSON) in row-major order
http://www.bom.gov.au/fwo/IDQ60801/IDQ60801.94549.json